| time (UTC) | temp F | wind direction | speed MPH | gust MPH | rain 1hr in | rain 24hr in | rain mn in | humidity % | barometer mb |
| 20260906103029 | 71 | 270 | 0.0 | 0.0 | 0.00 | 0.00 | 0.00 | 54 | 987.1 |
| 20260906101530 | 73 | 335 | 0.0 | 0.0 | 0.00 | 0.00 | 0.00 | 52 | 987.1 |
| 20260906100029 | 72 | 316 | 0.0 | 0.0 | 0.00 | 0.00 | 0.00 | 53 | 987.0 |
| 20260906094520 | 70 | 265 | 0.0 | 0.0 | 0.00 | 0.00 | 0.00 | 55 | 986.9 |
| 20260906093033 | 70 | 328 | 0.0 | 0.0 | 0.00 | 0.00 | 0.00 | 55 | 986.9 |
| 20260906091518 | 70 | 270 | 0.0 | 0.0 | 0.00 | 0.00 | 0.00 | 57 | 986.8 |
| 20260906084514 | 70 | 297 | 0.0 | 0.0 | 0.00 | 0.00 | 0.00 | 55 | 986.9 |
| 20260906083013 | 70 | 278 | 0.0 | 0.0 | 0.00 | 0.00 | 0.00 | 55 | 986.8 |
| 20260906081512 | 70 | 270 | 0.0 | 0.0 | 0.00 | 0.00 | 0.00 | 56 | 986.9 |
| 20260906080011 | 70 | 280 | 0.0 | 0.0 | 0.00 | 0.00 | 0.00 | 57 | 986.9 |
| 20260906074510 | 69 | 286 | 0.0 | 0.0 | 0.00 | 0.00 | 0.00 | 58 | 987.0 |
| 20260906073008 | 70 | 308 | 0.0 | 0.0 | 0.00 | 0.00 | 0.00 | 58 | 986.9 |
| 20260906071508 | 70 | 282 | 0.0 | 0.0 | 0.00 | 0.00 | 0.00 | 61 | 987.1 |
| 20260906070007 | 69 | 270 | 0.0 | 0.0 | 0.00 | 0.00 | 0.00 | 60 | 987.2 |
| 20260906064507 | 69 | 316 | 0.0 | 0.0 | 0.00 | 0.00 | 0.00 | 61 | 987.1 |
| 20260906063005 | 69 | 295 | 0.0 | 0.0 | 0.00 | 0.00 | 0.00 | 62 | 987.1 |
| 20260906061504 | 69 | 299 | 0.0 | 0.0 | 0.00 | 0.00 | 0.00 | 63 | 987.3 |
| 20260906060003 | 69 | 284 | 0.0 | 0.0 | 0.00 | 0.00 | 0.00 | 64 | 987.2 |
| 20260906054501 | 69 | 270 | 0.0 | 0.0 | 0.00 | 0.00 | 0.00 | 64 | 987.1 |
| 20260906053059 | 68 | 270 | 0.0 | 0.0 | 0.00 | 0.00 | 0.00 | 65 | 987.2 |
| 20260906051603 | 67 | 270 | 0.0 | 0.0 | 0.00 | 0.00 | 0.00 | 66 | 987.1 |
| 20260906050104 | 66 | 281 | 0.0 | 0.0 | 0.00 | 0.00 | 0.00 | 68 | 987.0 |
| 20260906044551 | 63 | 287 | 0.0 | 0.0 | 0.00 | 0.00 | 0.00 | 71 | 986.9 |
| 20260906043052 | 62 | 291 | 0.0 | 0.0 | 0.00 | 0.00 | 0.00 | 73 | 987.1 |
| 20260906041544 | 59 | 277 | 0.0 | 0.0 | 0.00 | 0.00 | 0.00 | 77 | 986.9 |
| 20260906040042 | 57 | 282 | 0.0 | 0.0 | 0.00 | 0.00 | 0.00 | 79 | 986.8 |
| 20260906034605 | 54 | 270 | 0.0 | 0.0 | 0.00 | 0.00 | 0.00 | 84 | 986.8 |
| 20260906033039 | 52 | 251 | 0.0 | 0.0 | 0.00 | 0.00 | 0.00 | 86 | 986.7 |
| 20260906031546 | 51 | 270 | 0.0 | 0.0 | 0.00 | 0.00 | 0.00 | 85 | 986.5 |
| 20260906030037 | 52 | 270 | 0.0 | 0.0 | 0.00 | 0.00 | 0.00 | 85 | 986.5 |
| 20260906024536 | 52 | 265 | 0.0 | 0.0 | 0.00 | 0.00 | 0.00 | 85 | 986.4 |
| 20260906023035 | 52 | 265 | 0.0 | 0.0 | 0.00 | 0.00 | 0.00 | 86 | 986.4 |
| 20260906021534 | 52 | 270 | 0.0 | 0.0 | 0.00 | 0.00 | 0.00 | 86 | 986.3 |
| 20260906020032 | 52 | 274 | 0.0 | 0.0 | 0.00 | 0.00 | 0.00 | 86 | 986.5 |
| 20260906014530 | 52 | 270 | 0.0 | 0.0 | 0.00 | 0.00 | 0.00 | 85 | 986.4 |
| 20260906013040 | 53 | 279 | 0.0 | 0.0 | 0.00 | 0.00 | 0.00 | 85 | 986.5 |
| 20260906011528 | 53 | 281 | 0.0 | 0.0 | 0.00 | 0.00 | 0.00 | 86 | 986.4 |
| 20260906010029 | 53 | 270 | 0.0 | 0.0 | 0.00 | 0.00 | 0.00 | 86 | 986.5 |
| 20260906004524 | 53 | 270 | 0.0 | 0.0 | 0.00 | 0.00 | 0.00 | 86 | 986.5 |
| 20260906003023 | 53 | 270 | 0.0 | 0.0 | 0.00 | 0.00 | 0.00 | 86 | 986.3 |
| 20260906001522 | 53 | 265 | 0.0 | 0.0 | 0.00 | 0.00 | 0.00 | 84 | 986.4 |
| 20260906000019 | 53 | 260 | 0.0 | 0.0 | 0.00 | 0.00 | 0.00 | 84 | 986.5 |
| 20260905234516 | 54 | 250 | 0.0 | 0.0 | 0.00 | 0.00 | 0.00 | 83 | 986.5 |
| 20260905233013 | 55 | 253 | 0.0 | 0.0 | 0.00 | 0.00 | 0.00 | 82 | 986.5 |
| 20260905231521 | 56 | 280 | 0.0 | 0.0 | 0.00 | 0.00 | 0.00 | 82 | 986.4 |
| 20260905230009 | 56 | 278 | 0.0 | 0.0 | 0.00 | 0.00 | 0.00 | 83 | 986.4 |
| 20260905224507 | 56 | 282 | 0.0 | 0.0 | 0.00 | 0.00 | 0.00 | 82 | 986.5 |
| 20260905223003 | 57 | 274 | 0.0 | 0.0 | 0.00 | 0.00 | 0.00 | 81 | 986.5 |
| 20260905221601 | 58 | 278 | 0.0 | 0.0 | 0.00 | 0.00 | 0.00 | 80 | 986.3 |
| 20260905220105 | 59 | 290 | 0.0 | 0.0 | 0.00 | 0.00 | 0.00 | 79 | 986.2 |
| 20260905214553 | 60 | 296 | 0.0 | 0.0 | 0.00 | 0.00 | 0.00 | 79 | 986.2 |
| 20260905213051 | 61 | 303 | 0.0 | 0.0 | 0.00 | 0.00 | 0.00 | 78 | 986.2 |
| 20260905211548 | 62 | 289 | 0.0 | 0.0 | 0.00 | 0.00 | 0.00 | 77 | 986.2 |
| 20260905210056 | 62 | 292 | 0.0 | 0.0 | 0.00 | 0.00 | 0.00 | 77 | 986.1 |
| 20260905204552 | 62 | 290 | 0.0 | 0.0 | 0.00 | 0.00 | 0.00 | 77 | 986.0 |
| 20260905203058 | 62 | 299 | 0.0 | 0.0 | 0.00 | 0.00 | 0.00 | 77 | 986.0 |
| 20260905201542 | 61 | 293 | 0.0 | 0.0 | 0.00 | 0.00 | 0.00 | 77 | 985.7 |
| 20260905200043 | 61 | 301 | 0.0 | 0.0 | 0.00 | 0.00 | 0.00 | 76 | 985.5 |
| 20260905194539 | 61 | 290 | 0.0 | 0.0 | 0.00 | 0.00 | 0.00 | 75 | 985.5 |
| 20260905193036 | 62 | 270 | 0.0 | 0.0 | 0.00 | 0.00 | 0.00 | 74 | 985.5 |
| 20260905191539 | 63 | 284 | 0.0 | 0.0 | 0.00 | 0.00 | 0.00 | 73 | 985.6 |
| 20260905190034 | 63 | 270 | 0.0 | 0.0 | 0.00 | 0.00 | 0.00 | 73 | 985.7 |
| 20260905184540 | 63 | 279 | 0.0 | 0.0 | 0.00 | 0.00 | 0.00 | 74 | 985.6 |
| 20260905183030 | 63 | 286 | 0.0 | 0.0 | 0.00 | 0.00 | 0.00 | 73 | 985.6 |
| 20260905181528 | 64 | 292 | 0.0 | 0.0 | 0.00 | 0.00 | 0.00 | 74 | 985.7 |
| 20260905180025 | 64 | 270 | 0.0 | 0.0 | 0.00 | 0.00 | 0.00 | 74 | 985.7 |
| 20260905174524 | 65 | 287 | 0.0 | 0.0 | 0.00 | 0.00 | 0.00 | 74 | 985.8 |
| 20260905173020 | 66 | 289 | 0.0 | 0.0 | 0.00 | 0.00 | 0.00 | 73 | 985.7 |
| 20260905171527 | 66 | 282 | 0.0 | 0.0 | 0.00 | 0.00 | 0.00 | 73 | 985.7 |
| 20260905170017 | 67 | 284 | 0.0 | 0.0 | 0.00 | 0.00 | 0.00 | 71 | 985.7 |
| 20260905163032 | 68 | 301 | 0.0 | 0.0 | 0.00 | 0.00 | 0.00 | 70 | 985.2 |
| 20260905161526 | 68 | 279 | 0.0 | 0.0 | 0.00 | 0.00 | 0.00 | 71 | 985.0 |
| 20260905160026 | 70 | 3 | 0.0 | 0.0 | 0.00 | 0.00 | 0.00 | 70 | 984.8 |
| 20260905154525 | 72 | 357 | 0.0 | 0.0 | 0.00 | 0.00 | 0.00 | 65 | 984.6 |
| 20260905153025 | 73 | 336 | 0.0 | 0.0 | 0.00 | 0.00 | 0.00 | 60 | 984.0 |
| 20260905151525 | 74 | 301 | 0.0 | 0.0 | 0.00 | 0.00 | 0.00 | 60 | 983.8 |
| 20260905150036 | 74 | 270 | 0.0 | 0.0 | 0.00 | 0.00 | 0.00 | 58 | 983.8 |
| 20260905144523 | 74 | 282 | 0.0 | 0.0 | 0.00 | 0.00 | 0.00 | 57 | 983.9 |
| 20260905143023 | 75 | 290 | 0.0 | 0.0 | 0.00 | 0.00 | 0.00 | 57 | 983.6 |
| 20260905141523 | 76 | 270 | 0.0 | 0.0 | 0.00 | 0.00 | 0.00 | 57 | 983.6 |
| 20260905140022 | 75 | 285 | 0.0 | 0.0 | 0.00 | 0.00 | 0.00 | 58 | 983.6 |
| 20260905134524 | 76 | 280 | 0.0 | 1.0 | 0.00 | 0.00 | 0.00 | 57 | 983.6 |
| 20260905133022 | 76 | 291 | 0.0 | 0.0 | 0.00 | 0.00 | 0.00 | 58 | 983.7 |
| 20260905131532 | 76 | 260 | 0.0 | 0.0 | 0.00 | 0.00 | 0.00 | 57 | 983.5 |
| 20260905130019 | 77 | 270 | 0.0 | 1.0 | 0.00 | 0.00 | 0.00 | 57 | 983.4 |
| 20260905124517 | 77 | 260 | 0.0 | 3.0 | 0.00 | 0.00 | 0.00 | 57 | 983.5 |
| 20260905123016 | 76 | 260 | 0.0 | 0.0 | 0.00 | 0.00 | 0.00 | 59 | 983.8 |
| 20260905121515 | 76 | 265 | 0.0 | 1.0 | 0.00 | 0.00 | 0.00 | 61 | 983.8 |
| 20260905120021 | 76 | 251 | 0.0 | 1.0 | 0.00 | 0.00 | 0.00 | 61 | 983.8 |
| 20260905114516 | 76 | 270 | 0.0 | 0.0 | 0.00 | 0.00 | 0.00 | 63 | 983.9 |
| 20260905113011 | 77 | 270 | 0.0 | 1.0 | 0.00 | 0.00 | 0.00 | 59 | 983.8 |
| 20260905111508 | 76 | 270 | 0.0 | 0.0 | 0.00 | 0.00 | 0.00 | 61 | 983.7 |
| 20260905110007 | 77 | 260 | 0.0 | 1.0 | 0.00 | 0.00 | 0.00 | 60 | 983.6 |
| 20260905104509 | 77 | 280 | 0.0 | 0.0 | 0.00 | 0.00 | 0.00 | 59 | 983.6 |